createdAt,value
2017-07-29T00:00:08.463Z,4.80
2017-07-29T00:02:36.006Z,5.07
2017-07-29T00:05:04.302Z,4.10
2017-07-29T00:07:31.855Z,4.80
2017-07-29T00:09:59.382Z,4.50
2017-07-29T00:12:26.939Z,4.43
2017-07-29T00:14:54.470Z,4.77
2017-07-29T00:17:22.021Z,4.60
2017-07-29T00:19:49.542Z,4.77
2017-07-29T00:22:17.865Z,4.63
2017-07-29T00:24:45.402Z,4.97
2017-07-29T00:27:12.955Z,4.57
2017-07-29T00:29:40.480Z,4.50
2017-07-29T00:32:08.022Z,4.70
2017-07-29T00:34:35.537Z,4.93
2017-07-29T00:37:03.082Z,4.80
2017-07-29T00:39:31.372Z,4.27
2017-07-29T00:41:58.930Z,4.93
2017-07-29T00:44:26.462Z,5.00
2017-07-29T00:46:54.015Z,4.97
2017-07-29T00:49:26.287Z,4.97
2017-07-29T00:51:53.843Z,4.90
2017-07-29T00:54:21.427Z,5.00
2017-07-29T00:56:48.999Z,5.17
2017-07-29T00:59:16.541Z,4.90
2017-07-29T01:01:44.946Z,5.27
2017-07-29T01:04:12.499Z,5.40
2017-07-29T01:06:40.137Z,5.10
2017-07-29T01:09:08.476Z,5.53
2017-07-29T01:11:36.129Z,5.03
2017-07-29T01:14:03.681Z,6.17
2017-07-29T01:16:31.210Z,5.33
2017-07-29T01:18:59.538Z,5.27
2017-07-29T01:21:27.064Z,4.50
2017-07-29T01:23:54.662Z,4.97
2017-07-29T01:26:22.191Z,5.33
2017-07-29T01:31:47.674Z,5.00
2017-07-29T01:34:15.236Z,4.97
2017-07-29T01:36:42.831Z,4.80
2017-07-29T01:39:10.374Z,5.47
2017-07-29T01:41:38.814Z,5.30
2017-07-29T01:44:06.369Z,4.30
2017-07-29T01:46:33.895Z,4.60
2017-07-29T01:49:01.502Z,4.60
2017-07-29T01:51:29.065Z,4.90
2017-07-29T01:53:56.678Z,4.93
2017-07-29T01:56:43.719Z,6.17
2017-07-29T01:59:11.273Z,7.20
2017-07-29T02:01:39.125Z,7.23
2017-07-29T02:04:06.674Z,8.20
2017-07-29T02:06:34.202Z,6.63
2017-07-29T02:09:01.754Z,6.17
2017-07-29T02:11:29.279Z,5.80
2017-07-29T02:13:56.834Z,5.20
2017-07-29T02:16:24.364Z,4.77
2017-07-29T02:18:51.922Z,5.00
2017-07-29T02:21:20.227Z,4.63
2017-07-29T02:23:47.779Z,4.90
2017-07-29T02:26:15.294Z,4.43
2017-07-29T02:28:42.818Z,4.30
2017-07-29T02:31:10.377Z,4.10
2017-07-29T02:33:37.903Z,4.10
2017-07-29T02:36:05.453Z,4.50
2017-07-29T02:38:33.741Z,3.83
2017-07-29T02:41:01.298Z,4.03
2017-07-29T02:43:29.667Z,4.53
2017-07-29T02:45:57.985Z,4.27
2017-07-29T02:48:25.520Z,5.30
2017-07-29T02:50:53.075Z,5.30
2017-07-29T02:53:20.617Z,5.97
2017-07-29T02:55:48.939Z,4.87
2017-07-29T02:58:16.461Z,5.40
2017-07-29T03:00:44.779Z,4.90
2017-07-29T03:03:12.306Z,4.40
2017-07-29T03:05:39.855Z,4.17
2017-07-29T03:08:08.147Z,4.27
2017-07-29T03:10:35.710Z,4.87
2017-07-29T03:13:03.261Z,4.40
2017-07-29T03:15:30.807Z,4.30
2017-07-29T03:17:59.106Z,4.40
2017-07-29T03:20:26.654Z,4.90
2017-07-29T03:22:54.946Z,4.47
2017-07-29T03:25:22.503Z,4.20
2017-07-29T03:27:50.030Z,4.80
2017-07-29T03:30:17.555Z,5.13
2017-07-29T03:32:45.105Z,7.00
2017-07-29T03:35:13.129Z,5.70
2017-07-29T03:37:41.663Z,6.13
2017-07-29T03:40:09.287Z,6.40
2017-07-29T03:42:37.453Z,6.43
2017-07-29T03:45:05.995Z,5.70
2017-07-29T03:47:33.633Z,6.40
2017-07-29T03:50:01.166Z,5.90
2017-07-29T03:52:29.906Z,5.30
2017-07-29T03:54:59.477Z,5.17
2017-07-29T03:57:27.881Z,4.47
2017-07-29T04:00:11.942Z,5.27
2017-07-29T04:02:39.490Z,5.90
2017-07-29T04:05:07.014Z,6.50
2017-07-29T04:07:34.576Z,7.27
2017-07-29T04:10:02.110Z,6.37
2017-07-29T04:12:30.448Z,6.00
2017-07-29T04:14:57.966Z,6.33
2017-07-29T04:17:25.599Z,5.97
2017-07-29T04:19:53.274Z,6.00
2017-07-29T04:22:20.849Z,5.87
2017-07-29T04:24:48.374Z,5.37
2017-07-29T04:27:15.930Z,6.37
2017-07-29T04:29:44.250Z,6.50
2017-07-29T04:32:11.810Z,6.23
2017-07-29T04:34:39.475Z,6.20
2017-07-29T04:37:07.150Z,6.33
2017-07-29T04:39:34.732Z,5.33
2017-07-29T04:42:02.258Z,5.20
2017-07-29T04:44:29.822Z,5.23
2017-07-29T04:46:57.375Z,4.90
2017-07-29T04:49:25.083Z,5.07
2017-07-29T04:51:52.609Z,5.50
2017-07-29T04:54:20.154Z,5.40
2017-07-29T04:56:47.691Z,5.73
2017-07-29T04:59:16.014Z,5.30
2017-07-29T05:01:43.539Z,5.27
2017-07-29T05:04:11.851Z,5.20
2017-07-29T05:06:39.385Z,5.53
2017-07-29T05:09:06.934Z,5.43
2017-07-29T05:11:35.219Z,6.40
2017-07-29T05:14:02.771Z,7.20
2017-07-29T05:16:31.066Z,8.03
2017-07-29T05:18:58.636Z,6.47
2017-07-29T05:21:26.160Z,7.07
2017-07-29T05:23:54.486Z,7.17
2017-07-29T05:26:22.014Z,9.27
2017-07-29T05:28:49.571Z,10.20
2017-07-29T05:31:17.119Z,9.37
2017-07-29T05:33:45.440Z,7.57
2017-07-29T05:36:12.983Z,6.13
2017-07-29T05:38:40.537Z,5.70
2017-07-29T05:41:08.063Z,5.23
2017-07-29T05:43:36.370Z,5.27
2017-07-29T05:46:03.922Z,4.70
2017-07-29T05:48:31.464Z,4.60
2017-07-29T05:50:59.790Z,4.10
2017-07-29T05:53:27.310Z,4.50
2017-07-29T05:55:55.621Z,3.73
2017-07-29T05:58:23.171Z,4.30
2017-07-29T06:00:50.734Z,4.20
2017-07-29T06:03:18.266Z,4.30
2017-07-29T06:05:46.582Z,4.83
2017-07-29T06:08:14.127Z,4.57
2017-07-29T06:10:41.678Z,3.93
2017-07-29T06:13:09.202Z,3.93
2017-07-29T06:15:36.749Z,4.00
2017-07-29T06:18:04.289Z,4.10
2017-07-29T06:20:31.842Z,3.63
2017-07-29T06:22:59.380Z,4.07
2017-07-29T06:25:26.933Z,4.37
2017-07-29T06:27:54.471Z,3.90
2017-07-29T06:30:22.796Z,3.70
2017-07-29T06:32:50.340Z,4.03
2017-07-29T06:35:17.889Z,3.87
2017-07-29T06:37:45.434Z,3.93
2017-07-29T06:40:13.767Z,4.03
2017-07-29T06:42:41.312Z,5.07
2017-07-29T06:45:08.843Z,4.17
2017-07-29T06:47:36.395Z,3.37
2017-07-29T06:50:03.930Z,3.90
2017-07-29T06:52:31.490Z,3.43
2017-07-29T06:54:59.014Z,3.43
2017-07-29T06:57:26.614Z,4.30
2017-07-29T06:59:54.143Z,3.80
2017-07-29T07:02:21.692Z,3.53
2017-07-29T07:04:49.243Z,3.70
2017-07-29T07:07:16.799Z,3.97
2017-07-29T07:09:44.345Z,3.50
2017-07-29T07:12:11.899Z,3.30
2017-07-29T07:14:39.434Z,3.87
2017-07-29T07:17:07.000Z,3.33
2017-07-29T07:19:35.299Z,3.40
2017-07-29T07:22:02.856Z,2.97
2017-07-29T07:24:30.630Z,3.70
2017-07-29T07:26:59.717Z,3.90
2017-07-29T07:29:28.023Z,3.80
2017-07-29T07:31:56.836Z,3.87
2017-07-29T07:34:24.691Z,3.17
2017-07-29T07:36:53.020Z,3.00
2017-07-29T07:39:20.587Z,3.70
2017-07-29T07:41:48.272Z,3.33
2017-07-29T07:44:15.819Z,2.77
2017-07-29T07:46:43.383Z,3.67
2017-07-29T07:49:10.926Z,3.90
2017-07-29T07:51:38.462Z,3.53
2017-07-29T07:54:06.791Z,3.57
2017-07-29T07:56:34.326Z,3.43
2017-07-29T07:59:01.878Z,3.73
2017-07-29T08:01:30.167Z,3.60
2017-07-29T08:03:57.713Z,3.87
2017-07-29T08:06:26.014Z,3.20
2017-07-29T08:08:53.562Z,3.30
2017-07-29T08:11:21.082Z,2.97
2017-07-29T08:13:48.646Z,3.13
2017-07-29T08:16:16.170Z,3.60
2017-07-29T08:18:43.724Z,3.00
2017-07-29T08:21:11.246Z,3.67
2017-07-29T08:23:39.562Z,3.17
2017-07-29T08:26:07.086Z,3.07
2017-07-29T08:28:35.402Z,3.20
2017-07-29T08:31:02.935Z,3.37
2017-07-29T08:33:30.478Z,3.03
2017-07-29T08:35:58.806Z,3.10
2017-07-29T08:38:26.359Z,2.87
2017-07-29T08:40:53.882Z,3.20
2017-07-29T08:43:22.204Z,3.10
2017-07-29T08:45:49.730Z,2.80
2017-07-29T08:48:17.263Z,3.30
2017-07-29T08:50:44.835Z,2.97
2017-07-29T08:53:13.134Z,2.97
2017-07-29T08:55:40.682Z,3.40
2017-07-29T08:58:08.218Z,3.40
2017-07-29T09:00:36.541Z,3.73
2017-07-29T09:03:04.062Z,3.63
2017-07-29T09:05:32.369Z,3.40
2017-07-29T09:07:59.899Z,3.63
2017-07-29T09:10:28.218Z,3.20
2017-07-29T09:12:55.754Z,3.40
2017-07-29T09:15:23.311Z,2.73
2017-07-29T09:17:50.859Z,3.20
2017-07-29T09:20:19.173Z,2.67
2017-07-29T09:22:46.698Z,3.10
2017-07-29T09:25:15.023Z,3.40
2017-07-29T09:27:42.550Z,3.00
2017-07-29T09:30:10.102Z,3.40
2017-07-29T09:32:37.626Z,2.90
2017-07-29T09:35:05.186Z,2.60
2017-07-29T09:37:32.714Z,3.00
2017-07-29T09:40:00.254Z,3.10
2017-07-29T09:42:27.779Z,3.30
2017-07-29T09:44:56.103Z,3.00
2017-07-29T09:47:23.628Z,2.93
2017-07-29T09:49:51.942Z,3.00
2017-07-29T09:52:19.470Z,3.37
2017-07-29T09:54:46.999Z,3.23
2017-07-29T09:57:14.541Z,3.03
2017-07-29T09:59:42.062Z,2.97
2017-07-29T10:02:09.617Z,2.60
2017-07-29T10:04:37.142Z,2.60
2017-07-29T10:07:04.694Z,2.80
2017-07-29T10:09:32.222Z,2.57
2017-07-29T10:11:59.794Z,3.63
2017-07-29T10:14:27.328Z,3.83
2017-07-29T10:16:54.896Z,3.27
2017-07-29T10:19:22.434Z,2.87
2017-07-29T10:21:49.995Z,3.10
2017-07-29T10:24:17.535Z,3.00
2017-07-29T10:26:45.847Z,3.00
2017-07-29T10:29:13.376Z,2.87
2017-07-29T10:31:48.711Z,3.10
2017-07-29T10:34:17.008Z,2.60
2017-07-29T10:36:44.564Z,2.60
2017-07-29T10:39:12.089Z,2.40
2017-07-29T10:41:39.647Z,2.80
2017-07-29T10:44:07.170Z,2.27
2017-07-29T10:46:34.721Z,3.00
2017-07-29T10:49:02.250Z,2.80
2017-07-29T10:51:30.566Z,2.87
2017-07-29T10:53:58.095Z,4.40
2017-07-29T10:56:25.619Z,3.47
2017-07-29T10:58:53.166Z,3.40
2017-07-29T11:01:20.691Z,3.40
2017-07-29T11:03:48.239Z,2.90
2017-07-29T11:06:15.767Z,3.33
2017-07-29T11:08:44.092Z,2.90
2017-07-29T11:11:11.622Z,3.10
2017-07-29T11:13:39.935Z,3.00
2017-07-29T11:16:07.480Z,3.10
2017-07-29T11:18:35.029Z,2.43
2017-07-29T11:21:02.560Z,2.80
2017-07-29T11:23:30.250Z,2.93
2017-07-29T11:25:57.798Z,3.17
2017-07-29T11:28:25.358Z,2.67
2017-07-29T11:30:53.650Z,3.00
2017-07-29T11:33:21.210Z,2.90
2017-07-29T11:35:48.742Z,2.93
2017-07-29T11:38:17.059Z,3.00
2017-07-29T11:40:44.588Z,2.73
2017-07-29T11:43:12.910Z,3.50
2017-07-29T11:45:40.436Z,2.67
2017-07-29T11:48:07.986Z,2.50
2017-07-29T11:50:36.279Z,2.77
2017-07-29T11:53:03.828Z,3.00
2017-07-29T11:55:32.114Z,2.73
2017-07-29T11:57:59.679Z,3.67
2017-07-29T12:00:27.207Z,2.80
2017-07-29T12:02:55.498Z,2.90
2017-07-29T12:05:23.814Z,2.60
2017-07-29T12:07:51.346Z,3.20
2017-07-29T12:10:18.897Z,2.73
2017-07-29T12:12:46.434Z,2.80
2017-07-29T12:15:13.978Z,2.83
2017-07-29T12:17:41.511Z,3.13
2017-07-29T12:20:09.063Z,3.10
2017-07-29T12:22:36.595Z,2.70
2017-07-29T12:25:04.155Z,2.53
2017-07-29T12:27:32.447Z,2.73
2017-07-29T12:29:59.998Z,2.33
2017-07-29T12:32:27.535Z,2.30
2017-07-29T12:34:55.515Z,3.17
2017-07-29T12:37:23.811Z,2.27
2017-07-29T12:39:51.362Z,3.23
2017-07-29T12:42:18.899Z,2.43
2017-07-29T12:44:47.213Z,2.97
2017-07-29T12:47:14.742Z,2.90
2017-07-29T12:49:44.994Z,3.47
2017-07-29T12:52:12.534Z,4.17
2017-07-29T12:54:40.845Z,3.50
2017-07-29T12:57:08.370Z,2.77
2017-07-29T12:59:36.686Z,3.07
2017-07-29T13:02:04.203Z,2.90
2017-07-29T13:04:32.495Z,2.60
2017-07-29T13:07:00.044Z,2.80
2017-07-29T13:09:31.905Z,2.90
2017-07-29T13:12:00.235Z,3.33
2017-07-29T13:14:27.761Z,3.00
2017-07-29T13:16:55.324Z,3.53
2017-07-29T13:19:22.846Z,2.83
2017-07-29T13:21:51.168Z,2.50
2017-07-29T13:24:18.694Z,2.50
2017-07-29T13:26:47.008Z,2.73
2017-07-29T13:29:14.543Z,2.83
2017-07-29T13:31:42.081Z,2.90
2017-07-29T13:34:10.381Z,2.50
2017-07-29T13:36:37.939Z,2.90
2017-07-29T13:39:05.470Z,2.53
2017-07-29T13:41:33.017Z,2.27
2017-07-29T13:44:00.551Z,2.77
2017-07-29T13:46:28.102Z,3.17
2017-07-29T13:48:55.634Z,2.73
2017-07-29T13:51:23.178Z,3.00
2017-07-29T13:53:51.474Z,2.43
2017-07-29T13:56:19.026Z,3.00
2017-07-29T13:58:47.320Z,3.03
2017-07-29T14:01:14.885Z,3.00
2017-07-29T14:03:42.429Z,3.13
2017-07-29T14:06:09.992Z,3.13
2017-07-29T14:08:37.523Z,2.50
2017-07-29T14:11:05.052Z,2.47
2017-07-29T14:13:32.612Z,2.67
2017-07-29T14:16:00.139Z,2.73
2017-07-29T14:18:27.688Z,2.57
2017-07-29T14:20:55.227Z,3.60
2017-07-29T14:23:22.800Z,3.30
2017-07-29T14:25:51.090Z,3.40
2017-07-29T14:28:18.637Z,3.00
2017-07-29T14:30:46.922Z,3.00
2017-07-29T14:33:14.481Z,2.60
2017-07-29T14:35:42.010Z,4.00
2017-07-29T14:38:09.587Z,3.07
2017-07-29T14:40:37.886Z,3.57
2017-07-29T14:43:05.438Z,3.20
2017-07-29T14:45:32.975Z,3.80
2017-07-29T14:48:01.293Z,3.10
2017-07-29T14:50:28.826Z,3.30
2017-07-29T14:52:57.151Z,3.20
2017-07-29T14:55:24.678Z,2.93
2017-07-29T14:57:52.233Z,3.17
2017-07-29T15:00:19.760Z,3.43
2017-07-29T15:02:47.311Z,2.97
2017-07-29T15:05:14.834Z,3.13
2017-07-29T15:07:42.393Z,3.23
2017-07-29T15:10:09.922Z,2.83
2017-07-29T15:12:37.446Z,2.77
2017-07-29T15:15:05.005Z,2.80
2017-07-29T15:17:32.537Z,2.80
2017-07-29T15:20:00.083Z,3.00
2017-07-29T15:22:27.614Z,2.77
2017-07-29T15:24:55.929Z,2.67
2017-07-29T15:27:23.460Z,2.40
2017-07-29T15:29:51.006Z,3.00
2017-07-29T15:32:19.291Z,2.90
2017-07-29T15:34:46.842Z,2.80
2017-07-29T15:37:15.140Z,3.07
2017-07-29T15:39:42.702Z,2.50
2017-07-29T15:42:10.231Z,2.50
2017-07-29T15:44:38.562Z,2.50
2017-07-29T15:47:06.090Z,2.70
2017-07-29T15:49:33.630Z,3.00
2017-07-29T15:52:01.928Z,3.07
2017-07-29T15:54:29.479Z,3.60
2017-07-29T15:56:57.000Z,3.50
2017-07-29T15:59:24.554Z,2.80
2017-07-29T16:01:52.079Z,3.37
2017-07-29T16:04:19.630Z,2.90
2017-07-29T16:06:47.150Z,2.70
2017-07-29T16:09:14.715Z,2.40
2017-07-29T16:11:42.240Z,2.80
2017-07-29T16:14:09.770Z,3.13
2017-07-29T16:16:37.328Z,2.70
2017-07-29T16:19:04.857Z,2.80
2017-07-29T16:21:33.175Z,3.07
2017-07-29T16:24:00.703Z,3.70
2017-07-29T16:26:29.017Z,4.27
2017-07-29T16:28:56.549Z,3.43
2017-07-29T16:31:24.110Z,6.30
2017-07-29T16:33:51.643Z,7.40
2017-07-29T16:36:22.243Z,5.87
2017-07-29T16:38:50.766Z,3.60
2017-07-29T16:41:18.665Z,3.87
2017-07-29T16:43:46.197Z,2.50
2017-07-29T16:46:14.508Z,2.90
2017-07-29T16:48:42.026Z,3.00
2017-07-29T16:51:10.338Z,2.90
2017-07-29T16:53:37.870Z,3.27
2017-07-29T16:56:06.192Z,7.50
2017-07-29T16:58:33.911Z,5.27
2017-07-29T17:01:02.223Z,4.70
2017-07-29T17:03:29.751Z,4.10
2017-07-29T17:05:58.068Z,3.50
2017-07-29T17:08:25.598Z,4.10
2017-07-29T17:10:53.151Z,4.30
2017-07-29T17:13:21.443Z,5.20
2017-07-29T17:15:49.024Z,7.50
2017-07-29T17:18:16.558Z,4.20
2017-07-29T17:20:44.088Z,3.20
2017-07-29T17:23:11.635Z,3.40
2017-07-29T17:25:39.158Z,3.10
2017-07-29T17:28:06.719Z,3.07
2017-07-29T17:30:34.243Z,2.90
2017-07-29T17:33:01.803Z,2.93
2017-07-29T17:35:30.095Z,4.17
2017-07-29T17:37:57.650Z,4.37
2017-07-29T17:40:25.186Z,3.40
2017-07-29T17:42:53.522Z,4.73
2017-07-29T17:45:21.052Z,3.90
2017-07-29T17:47:48.609Z,3.87
2017-07-29T17:50:16.139Z,3.00
2017-07-29T17:52:44.455Z,2.80
2017-07-29T17:55:11.986Z,3.10
2017-07-29T17:57:40.309Z,3.20
2017-07-29T18:00:07.839Z,3.13
2017-07-29T18:02:35.445Z,3.20
2017-07-29T18:05:02.985Z,3.10
2017-07-29T18:07:30.531Z,3.40
2017-07-29T18:09:58.064Z,3.17
2017-07-29T18:12:26.385Z,3.27
2017-07-29T18:14:53.906Z,4.00
2017-07-29T18:17:22.218Z,3.27
2017-07-29T18:19:49.750Z,3.83
2017-07-29T18:22:17.321Z,3.90
2017-07-29T18:24:44.846Z,3.60
2017-07-29T18:27:13.148Z,3.77
2017-07-29T18:29:40.706Z,3.73
2017-07-29T18:32:08.243Z,3.70
2017-07-29T18:34:36.570Z,3.53
2017-07-29T18:37:04.104Z,3.00
2017-07-29T18:39:31.654Z,4.53
2017-07-29T18:41:59.970Z,3.90
2017-07-29T18:44:27.523Z,4.37
2017-07-29T18:46:55.051Z,6.03
2017-07-29T18:49:23.365Z,4.77
2017-07-29T18:51:50.892Z,4.40
2017-07-29T18:54:18.451Z,6.40
2017-07-29T18:56:45.978Z,5.40
2017-07-29T18:59:13.526Z,4.10
2017-07-29T19:01:41.050Z,5.53
2017-07-29T19:04:08.596Z,6.80
2017-07-29T19:06:36.115Z,4.03
2017-07-29T19:09:03.667Z,3.90
2017-07-29T19:11:31.199Z,6.20
2017-07-29T19:13:58.745Z,5.17
2017-07-29T19:16:26.270Z,3.73
2017-07-29T19:18:54.583Z,4.00
2017-07-29T19:21:22.107Z,4.40
2017-07-29T19:23:50.442Z,4.00
2017-07-29T19:26:17.978Z,4.53
2017-07-29T19:28:45.506Z,4.00
2017-07-29T19:31:13.823Z,4.00
2017-07-29T19:33:41.351Z,4.20
2017-07-29T19:36:09.672Z,4.00
2017-07-29T19:38:37.203Z,4.13
2017-07-29T19:41:04.758Z,4.03
2017-07-29T19:43:32.290Z,4.23
2017-07-29T19:45:59.838Z,3.80
2017-07-29T19:48:27.362Z,3.90
2017-07-29T19:50:54.906Z,4.50
2017-07-29T19:53:22.434Z,4.80
2017-07-29T19:55:50.745Z,4.80
2017-07-29T19:58:18.262Z,4.10
2017-07-29T20:00:45.807Z,3.97
2017-07-29T20:03:13.332Z,3.63
2017-07-29T20:05:40.874Z,4.00
2017-07-29T20:08:08.399Z,4.87
2017-07-29T20:10:35.951Z,4.20
2017-07-29T20:13:03.488Z,4.37
2017-07-29T20:15:31.038Z,4.70
2017-07-29T20:17:58.562Z,4.00
2017-07-29T20:20:26.107Z,4.70
2017-07-29T20:22:54.402Z,4.47
2017-07-29T20:25:21.950Z,4.77
2017-07-29T20:27:50.852Z,4.60
2017-07-29T20:30:18.426Z,4.27
2017-07-29T20:32:45.955Z,4.50
2017-07-29T20:35:14.251Z,4.43
2017-07-29T20:37:41.799Z,4.20
2017-07-29T20:40:10.090Z,4.50
2017-07-29T20:42:37.674Z,4.60
2017-07-29T20:45:05.199Z,4.80
2017-07-29T20:47:33.516Z,5.30
2017-07-29T20:50:01.043Z,4.43
2017-07-29T20:52:28.590Z,4.90
2017-07-29T20:54:56.907Z,4.67
2017-07-29T20:57:24.458Z,4.53
2017-07-29T20:59:51.995Z,4.87
2017-07-29T21:02:19.554Z,4.83
2017-07-29T21:04:47.098Z,4.30
2017-07-29T21:07:15.436Z,4.60
2017-07-29T21:09:42.967Z,4.73
2017-07-29T21:12:10.531Z,5.67
2017-07-29T21:14:38.059Z,5.10
2017-07-29T21:17:06.375Z,4.50
2017-07-29T21:19:33.902Z,4.80
2017-07-29T21:22:02.240Z,4.80
2017-07-29T21:24:29.766Z,4.93
2017-07-29T21:26:57.313Z,5.00
2017-07-29T21:29:24.839Z,4.30
2017-07-29T21:31:52.394Z,4.50
2017-07-29T21:34:19.923Z,4.73
2017-07-29T21:36:47.449Z,5.07
2017-07-29T21:39:15.011Z,4.73
2017-07-29T21:41:42.539Z,4.37
2017-07-29T21:44:10.084Z,5.10
2017-07-29T21:46:37.611Z,4.60
2017-07-29T21:49:05.158Z,5.10
2017-07-29T21:51:32.690Z,5.30
2017-07-29T21:54:01.013Z,5.20
2017-07-29T21:56:28.547Z,5.30
2017-07-29T21:58:56.097Z,5.00
2017-07-29T22:01:23.622Z,5.00
2017-07-29T22:03:51.178Z,5.00
2017-07-29T22:06:18.703Z,5.40
2017-07-29T22:08:46.263Z,4.53
2017-07-29T22:11:13.789Z,5.20
2017-07-29T22:13:42.116Z,5.40
2017-07-29T22:16:09.645Z,5.83
2017-07-29T22:18:37.195Z,4.83
2017-07-29T22:21:04.719Z,4.70
2017-07-29T22:23:32.275Z,4.63
2017-07-29T22:25:59.806Z,5.83
2017-07-29T22:28:27.357Z,5.00
2017-07-29T22:51:17.167Z,5.03
2017-07-29T22:53:44.750Z,5.63
2017-07-29T22:56:12.277Z,5.53
2017-07-29T22:58:39.815Z,5.20
2017-07-29T23:01:08.150Z,5.77
2017-07-29T23:03:35.683Z,5.70
2017-07-29T23:06:03.232Z,5.40
2017-07-29T23:08:30.771Z,5.43
2017-07-29T23:10:59.095Z,5.50
2017-07-29T23:13:26.623Z,5.90
2017-07-29T23:15:54.171Z,5.13
2017-07-29T23:18:22.461Z,5.10
2017-07-29T23:20:50.023Z,5.20
2017-07-29T23:23:17.550Z,5.10
2017-07-29T23:25:45.873Z,5.37
2017-07-29T23:28:13.402Z,5.63
2017-07-29T23:30:41.714Z,5.30
2017-07-29T23:33:09.246Z,5.33
2017-07-29T23:35:37.558Z,5.33
2017-07-29T23:38:05.094Z,5.87
2017-07-29T23:40:32.655Z,5.10
2017-07-29T23:43:00.186Z,5.30
2017-07-29T23:45:28.499Z,5.13
2017-07-29T23:47:56.030Z,5.20
2017-07-29T23:50:24.347Z,5.73
2017-07-29T23:52:51.878Z,5.80
2017-07-29T23:55:19.430Z,5.27
2017-07-29T23:57:47.729Z,5.20
